Dalian Highway — 3FYE5 — position and weather

sailwx.info

Track history (hours):
 
Tides and Currents Weather Stations Pressure Air Temp Water Temp Dewpoint Dewpoint Depression Visibility Wind Speed Wind Dir Waves Ship Positions

Dalian Highway

Last reported at 2018-Feb-04 10:00 UTC. Time now 2018-Feb-19 21:25 UTC.
Position N 34°08' E 138°45'.
Warning: this ship's position is 15 days out of date.

Length 199 m; draft 8.9 m.

Type: Cargo ship. MMSI: 357694000.

Date/timePositionNaut miles runAvg speedWind from/ knotsBaromVisibWave heightAir tempDewpointWater temp
2018-Feb-04 10:00N 34°08' E 138°45'2116.2
2018-Feb-04 08:44N 34°12' E 138°21'416.8
2018-Feb-04 08:30N 34°13' E 138°16'1216.3
2018-Feb-04 07:46N 34°16' E 138°02'516.4
2018-Feb-04 07:27N 34°17' E 137°56'815.4
2018-Feb-04 06:57N 34°20' E 137°48'816.4
2018-Feb-04 06:27N 34°22' E 137°38'1516.6
2018-Feb-04 05:34N 34°26' E 137°21'717.0
2018-Feb-04 05:10N 34°28' E 137°13'516.7
2018-Feb-04 04:51N 34°30' E 137°07'511.5
2018-Feb-04 04:22N 34°33' E 137°01'513.0
2018-Feb-04 04:00N 34°36' E 136°57'917.6
2018-Feb-04 03:30N 34°42' E 136°49'917.9
2018-Feb-04 03:00N 34°51' E 136°46'815.0
2018-Feb-04 02:30N 34°58' E 136°48'510.6
2018-Feb-04 02:01N 35°02' E 136°51'0 0.6
2018-Feb-04 01:28N 35°03' E 136°51'0 0.0
2018-Feb-04 00:58N 35°03' E 136°51'0 0.0
2018-Feb-04 00:28N 35°03' E 136°51'0 0.0
2018-Feb-03 23:55N 35°03' E 136°51'0 0.0
2018-Feb-03 23:28N 35°03' E 136°51'0 0.0
2018-Feb-03 22:55N 35°03' E 136°51'0 0.0
2018-Feb-03 22:25N 35°03' E 136°51'0 0.6
2018-Feb-03 22:00N 35°02' E 136°51'2 4.3
2018-Feb-03 21:30N 35°01' E 136°50'611.9
2018-Feb-03 21:00N 34°55' E 136°47'714.0
2018-Feb-03 20:30N 34°48' E 136°47'714.4
2018-Feb-03 20:00N 34°42' E 136°51'1912.6
2018-Feb-03 18:29N 34°25' E 137°03'11012.3
2018-Feb-03 09:33N 33°45' E 134°59'118.2
2018-Feb-03 09:31N 33°46' E 134°59'918.0
2018-Feb-03 09:00N 33°54' E 134°55'918.4
2018-Feb-03 08:31N 34°03' E 134°56'816.3
2018-Feb-03 08:00N 34°11' E 134°57'2315.5
2018-Feb-03 06:30N 34°33' E 135°07'3 6.4
2018-Feb-03 06:01N 34°35' E 135°04'611.7
2018-Feb-03 05:30N 34°36' E 134°57'613.3
2018-Feb-03 05:00N 34°38' E 134°49'5 4.3
2018-Feb-03 03:57N 34°43' E 134°51'0 0.0
2018-Feb-03 03:30N 34°43' E 134°51'0 0.0
2018-Feb-03 01:54N 34°43' E 134°51'0 0.0
2018-Feb-03 01:30N 34°43' E 134°51'0 0.0
2018-Feb-03 01:00N 34°43' E 134°51'0 0.0
2018-Feb-03 00:27N 34°43' E 134°51'0 0.0
2018-Feb-02 23:57N 34°43' E 134°51'0 0.0
2018-Feb-02 23:30N 34°43' E 134°51'0 0.0
2018-Feb-02 22:51N 34°43' E 134°51'0 0.0
2018-Feb-02 22:30N 34°43' E 134°51'1 1.6
2018-Feb-02 22:00N 34°42' E 134°50'510.4
2018-Feb-02 21:30N 34°38' E 134°46'612.4
2018-Feb-02 21:00N 34°34' E 134°40'612.7
2018-Feb-02 20:31N 34°31' E 134°34'612.7
2018-Feb-02 20:00N 34°26' E 134°28'1212.0
2018-Feb-02 19:00N 34°24' E 134°14'714.0
2018-Feb-02 18:30N 34°26' E 134°06'2214.8
2018-Feb-02 17:02N 34°18' E 133°41'214.6
2018-Feb-02 16:55N 34°18' E 133°39'4413.9
2018-Feb-02 13:46N 34°05' E 132°49'416.0
2018-Feb-02 13:31N 34°01' E 132°46'816.2
2018-Feb-02 13:01N 33°55' E 132°39'916.8
2018-Feb-02 12:27N 33°49' E 132°31'817.3
2018-Feb-02 11:59N 33°45' E 132°23'2216.2
2018-Feb-02 10:35N 33°44' E 131°56'115.8
2018-Feb-02 10:30N 33°44' E 131°54'815.7
2018-Feb-02 10:01N 33°48' E 131°46'816.1
2018-Feb-02 09:31N 33°54' E 131°39'714.8
2018-Feb-02 09:00N 33°59' E 131°33'2 3.4
2018-Feb-02 08:29N 34°00' E 131°33'0 0.0
2018-Feb-02 07:53N 34°00' E 131°33'0 0.0
2018-Feb-02 07:29N 34°00' E 131°33'0 0.0
2018-Feb-02 06:59N 34°00' E 131°33'0 0.0
2018-Feb-02 06:29N 34°00' E 131°33'0 0.0
2018-Feb-02 05:59N 34°00' E 131°33'0 0.0
2018-Feb-02 05:29N 34°00' E 131°33'0 0.0
2018-Feb-02 04:59N 34°00' E 131°33'0 0.0
2018-Feb-02 04:29N 34°00' E 131°33'0 0.0
2018-Feb-02 03:59N 34°00' E 131°33'0 0.1
2018-Feb-02 03:29N 34°00' E 131°33'0 0.0
2018-Feb-02 02:59N 34°00' E 131°33'0 0.1
2018-Feb-02 02:29N 34°00' E 131°33'0 0.0
2018-Feb-02 01:59N 34°00' E 131°33'0 0.0
2018-Feb-02 01:29N 34°00' E 131°33'0 0.0
2018-Feb-02 00:59N 34°00' E 131°33'0 0.0
2018-Feb-02 00:23N 34°00' E 131°33'0 0.1
2018-Feb-01 23:59N 34°00' E 131°33'0 0.1
2018-Feb-01 23:29N 34°00' E 131°33'0 0.0
2018-Feb-01 22:59N 34°00' E 131°33'0 0.1
2018-Feb-01 22:00N 34°00' E 131°33'2 4.9
2018-Feb-01 21:30N 33°58' E 131°32'2512.5
2018-Feb-01 19:30N 33°44' E 131°57'1114.2
2018-Feb-01 18:46N 33°43' E 132°10'415.3
2018-Feb-01 18:30N 33°44' E 132°14'1115.4
2018-Feb-01 17:48N 33°49' E 132°26'616.0
2018-Feb-01 17:26N 33°53' E 132°31'613.8
2018-Feb-01 17:00N 33°58' E 132°34'6 9.2
2018-Feb-01 16:22N 34°01' E 132°29'411.4
2018-Feb-01 16:00N 34°04' E 132°25'611.7
2018-Feb-01 15:29N 34°09' E 132°21'611.7
2018-Feb-01 15:00N 34°15' E 132°21'6 3.9
2018-Feb-01 13:29N 34°19' E 132°26'0 0.0
2018-Feb-01 12:59N 34°19' E 132°26'0 0.1
2018-Feb-01 12:29N 34°19' E 132°26'0 0.0
2018-Feb-01 11:59N 34°19' E 132°26'0 0.0
2018-Feb-01 10:59N 34°19' E 132°26'0 0.0
2018-Feb-01 10:29N 34°19' E 132°26'0 0.0
2018-Feb-01 09:59N 34°19' E 132°26'0 0.0
2018-Feb-01 09:29N 34°19' E 132°26'0 0.1
2018-Feb-01 09:00N 34°20' E 132°26'2 5.0
2018-Feb-01 08:31N 34°21' E 132°28'1 0.1
2018-Jan-31 22:31N 34°21' E 132°29'0 0.7
2018-Jan-31 22:30N 34°21' E 132°29'10 6.8
2018-Jan-31 21:00N 34°14' E 132°21'510.6
2018-Jan-31 20:30N 34°08' E 132°22'714.1
2018-Jan-31 20:00N 34°03' E 132°27'612.9
2018-Jan-31 19:30N 34°01' E 132°34'712.0
2018-Jan-31 18:55N 33°53' E 132°33'613.3
2018-Jan-31 18:28N 33°50' E 132°28'613.8
2018-Jan-31 18:00N 33°45' E 132°23'1414.9
2018-Jan-31 17:04N 33°34' E 132°12'214.9
2018-Jan-31 16:54N 33°32' E 132°10'614.5
2018-Jan-31 16:30N 33°28' E 132°06'713.7
2018-Jan-31 16:00N 33°23' E 132°00'611.7
2018-Jan-31 15:30N 33°17' E 132°01'510.5
2018-Jan-31 15:00N 33°12' E 131°60'5 9.0
2018-Jan-31 14:30N 33°10' E 132°05'7111.6
2018-Jan-31 08:21N 32°35' E 133°19'17713.9
2018-Jan-30 19:37N 33°33' E 136°38'417.4
2018-Jan-30 19:23N 33°35' E 136°42'7316.7
2018-Jan-30 15:00N 34°19' E 137°53'815.6
2018-Jan-30 14:29N 34°24' E 138°01'1414.5
2018-Jan-30 13:30N 34°32' E 138°15'712.9
2018-Jan-30 13:00N 34°38' E 138°16'2 5.1
2018-Jan-30 12:31N 34°37' E 138°13'0 0.0
2018-Jan-30 02:59N 34°37' E 138°13'2 4.0
2018-Jan-30 02:30N 34°39' E 138°14'3 4.9
2018-Jan-30 01:59N 34°38' E 138°17'3 6.4
2018-Jan-30 01:30N 34°41' E 138°17'3 6.1
2018-Jan-30 01:00N 34°43' E 138°20'2 3.5
2018-Jan-30 00:29N 34°43' E 138°22'3 5.6
2018-Jan-30 00:00N 34°40' E 138°22'2 4.5
2018-Jan-29 23:30N 34°40' E 138°25'3 6.2
2018-Jan-29 23:00N 34°41' E 138°21'4 7.1
2018-Jan-29 22:30N 34°40' E 138°17'3 5.2
2018-Jan-29 22:00N 34°38' E 138°18'4 8.6
2018-Jan-29 21:30N 34°39' E 138°23'4 8.6
2018-Jan-29 21:00N 34°39' E 138°28'5 9.2
2018-Jan-29 20:30N 34°43' E 138°32'2 5.0
2018-Jan-29 20:00N 34°43' E 138°35'5 9.1
2018-Jan-29 19:28N 34°38' E 138°34'4 7.6
2018-Jan-29 18:56N 34°34' E 138°35'3 6.8
2018-Jan-29 18:29N 34°34' E 138°39'3 6.9
2018-Jan-29 17:59N 34°33' E 138°43'4 7.3
2018-Jan-29 17:30N 34°32' E 138°47'3 6.9
2018-Jan-29 17:00N 34°32' E 138°51'3 6.9
2018-Jan-29 16:30N 34°32' E 138°55'3 6.3
2018-Jan-29 15:59N 34°32' E 138°59'3 6.3
2018-Jan-29 15:29N 34°33' E 139°03'3 6.7
2018-Jan-29 14:59N 34°34' E 139°07'4 7.3
2018-Jan-29 14:29N 34°35' E 139°11'3 7.1
2018-Jan-29 14:00N 34°36' E 139°15'4 6.4
2018-Jan-29 13:27N 34°37' E 139°19'3 5.9
2018-Jan-29 12:59N 34°38' E 139°22'3 6.3
2018-Jan-29 12:28N 34°39' E 139°26'6 6.7
2018-Jan-29 11:33N 34°43' E 139°31'0 9.5
2018-Jan-29 11:30N 34°43' E 139°32'510.0
2018-Jan-29 11:00N 34°48' E 139°34'5 9.8
2018-Jan-29 10:30N 34°52' E 139°36'5 9.9
2018-Jan-29 10:00N 34°57' E 139°39'612.6
2018-Jan-29 09:30N 35°03' E 139°42'816.1
2018-Jan-29 09:00N 35°10' E 139°46'510.7
2018-Jan-29 08:30N 35°15' E 139°46'612.3
2018-Jan-29 08:00N 35°21' E 139°43'612.5
2018-Jan-29 07:30N 35°27' E 139°41'0 0.6
2018-Jan-29 06:59N 35°27' E 139°41'0 0.0
2018-Jan-29 06:29N 35°27' E 139°41'0 0.0
2018-Jan-29 05:59N 35°27' E 139°41'0 0.0
2018-Jan-29 05:29N 35°27' E 139°41'0 0.0
2018-Jan-29 04:59N 35°27' E 139°41'0 0.0
2018-Jan-29 04:29N 35°27' E 139°41'0 0.0
2018-Jan-29 03:59N 35°27' E 139°41'0 0.0
2018-Jan-29 03:29N 35°27' E 139°41'0 0.0
2018-Jan-29 02:59N 35°27' E 139°41'0 0.0
2018-Jan-29 02:29N 35°27' E 139°41'0 0.0
2018-Jan-29 01:59N 35°27' E 139°41'0 0.0
2018-Jan-29 01:27N 35°27' E 139°41'0 0.0
2018-Jan-29 00:52N 35°27' E 139°41'0 0.0
2018-Jan-29 00:26N 35°27' E 139°41'0 0.0
2018-Jan-28 23:29N 35°27' E 139°41'0 0.0
2018-Jan-28 22:51N 35°27' E 139°41'0 0.0
2018-Jan-28 22:30N 35°27' E 139°41'0 0.4
2018-Jan-28 22:00N 35°27' E 139°41'2 3.5
2018-Jan-28 21:30N 35°26' E 139°43'1 1.2
2018-Jan-28 20:59N 35°25' E 139°43'0 0.0
2018-Jan-28 20:29N 35°25' E 139°43'0 0.0
2018-Jan-28 19:59N 35°25' E 139°43'0 0.0
2018-Jan-28 19:29N 35°25' E 139°43'0 0.0
2018-Jan-28 18:59N 35°25' E 139°43'0 0.0
2018-Jan-28 18:29N 35°25' E 139°43'0 0.0
2018-Jan-28 17:59N 35°25' E 139°43'0 0.0
2018-Jan-28 17:29N 35°25' E 139°43'0 0.0
2018-Jan-28 16:59N 35°25' E 139°43'0 0.0
2018-Jan-28 16:29N 35°25' E 139°43'0 0.0
2018-Jan-28 15:59N 35°25' E 139°43'0 0.0
2018-Jan-28 15:29N 35°25' E 139°43'0 0.0
2018-Jan-28 14:59N 35°25' E 139°43'0 0.0
2018-Jan-28 14:29N 35°25' E 139°43'0 0.0
2018-Jan-28 13:59N 35°25' E 139°43'0 0.0
2018-Jan-28 13:29N 35°25' E 139°43'0 0.0
2018-Jan-28 12:59N 35°25' E 139°43'0 0.0
2018-Jan-28 12:29N 35°25' E 139°43'0 0.0
2018-Jan-28 11:59N 35°25' E 139°43'0 0.0
2018-Jan-28 11:29N 35°25' E 139°43'0 0.0
2018-Jan-28 10:59N 35°25' E 139°43'0 0.1
2018-Jan-28 10:29N 35°25' E 139°43'0 0.2
2018-Jan-28 09:59N 35°25' E 139°43'0 0.0
2018-Jan-28 09:29N 35°25' E 139°43'0 0.1
2018-Jan-28 08:59N 35°25' E 139°43'0 0.1
2018-Jan-28 08:26N 35°25' E 139°43'0 0.1
2018-Jan-28 07:59N 35°25' E 139°43'0 0.1
2018-Jan-28 07:29N 35°25' E 139°43'0 0.1
2018-Jan-28 06:59N 35°25' E 139°43'0 0.0
2018-Jan-28 06:29N 35°25' E 139°43'0 0.0
2018-Jan-28 05:59N 35°25' E 139°43'0 0.0
2018-Jan-28 05:29N 35°25' E 139°43'0 0.0
2018-Jan-28 04:59N 35°25' E 139°43'0 0.0
2018-Jan-28 04:29N 35°25' E 139°43'0 0.0
2018-Jan-28 03:59N 35°25' E 139°43'0 0.0
2018-Jan-28 03:29N 35°25' E 139°43'0 0.0
2018-Jan-28 02:59N 35°25' E 139°43'0 0.0
2018-Jan-28 02:29N 35°25' E 139°43'0 0.0
2018-Jan-28 01:59N 35°25' E 139°43'0 0.0
2018-Jan-28 01:26N 35°25' E 139°43'0 0.0
2018-Jan-28 00:59N 35°25' E 139°43'0 0.0
2018-Jan-28 00:29N 35°25' E 139°43'0 0.0
2018-Jan-27 23:59N 35°25' E 139°43'0 0.0
2018-Jan-27 23:26N 35°25' E 139°43'0 0.0
2018-Jan-27 22:59N 35°25' E 139°43'0 0.0
2018-Jan-27 22:29N 35°25' E 139°43'0 0.0
2018-Jan-27 21:59N 35°25' E 139°43'0 0.0
2018-Jan-27 21:29N 35°25' E 139°43'0 0.0
2018-Jan-27 20:59N 35°25' E 139°43'0 0.0
2018-Jan-27 20:29N 35°25' E 139°43'0 0.0
2018-Jan-27 19:59N 35°25' E 139°43'0 0.0
2018-Jan-27 19:29N 35°25' E 139°43'0 0.0
2018-Jan-27 18:59N 35°25' E 139°43'0 0.1
2018-Jan-27 18:29N 35°25' E 139°43'0 0.0
2018-Jan-27 17:59N 35°25' E 139°43'0 0.1
2018-Jan-27 17:29N 35°25' E 139°43'0 0.0
2018-Jan-27 16:59N 35°25' E 139°43'0 0.0
2018-Jan-27 16:29N 35°25' E 139°43'0 0.1
2018-Jan-27 15:59N 35°25' E 139°43'0 0.0
2018-Jan-27 15:29N 35°25' E 139°43'0 0.0
2018-Jan-27 14:59N 35°25' E 139°43'0 0.1
2018-Jan-27 14:29N 35°25' E 139°43'0 0.0
2018-Jan-27 13:59N 35°25' E 139°43'0 0.0
2018-Jan-27 13:29N 35°25' E 139°43'0 0.1
2018-Jan-27 12:59N 35°25' E 139°43'0 0.1
2018-Jan-27 12:29N 35°25' E 139°43'0 0.0
2018-Jan-27 11:59N 35°25' E 139°43'0 0.1
2018-Jan-27 11:29N 35°25' E 139°43'0 0.0
2018-Jan-27 10:59N 35°25' E 139°43'0 0.1
2018-Jan-27 10:29N 35°25' E 139°43'0 0.2
2018-Jan-27 09:59N 35°25' E 139°43'0 0.1
2018-Jan-27 09:29N 35°25' E 139°43'0 0.1
2018-Jan-27 08:59N 35°25' E 139°43'0 0.0
2018-Jan-27 08:29N 35°25' E 139°43'0 0.1
2018-Jan-27 07:59N 35°25' E 139°43'0 0.1
2018-Jan-27 07:29N 35°25' E 139°43'0 0.1
2018-Jan-27 06:59N 35°25' E 139°43'0 0.1
2018-Jan-27 06:29N 35°25' E 139°43'0 0.0
2018-Jan-27 05:59N 35°25' E 139°43'0 0.1
2018-Jan-27 05:29N 35°25' E 139°43'0 0.1
2018-Jan-27 04:59N 35°25' E 139°43'0 0.1
2018-Jan-27 04:29N 35°25' E 139°43'0 0.0
2018-Jan-27 03:59N 35°25' E 139°43'0 0.1
2018-Jan-27 03:29N 35°25' E 139°43'0 0.0
2018-Jan-27 02:59N 35°25' E 139°43'0 0.1
2018-Jan-27 02:29N 35°25' E 139°43'0 0.0
2018-Jan-27 01:59N 35°25' E 139°43'0 0.1
2018-Jan-27 01:30N 35°25' E 139°43'3 5.0
2018-Jan-27 01:00N 35°23' E 139°43'612.3
2018-Jan-27 00:30N 35°17' E 139°45'612.5
2018-Jan-27 00:00N 35°11' E 139°47'5 9.9
2018-Jan-26 23:30N 35°06' E 139°45'611.6
2018-Jan-26 23:00N 35°01' E 139°42'713.5
2018-Jan-26 22:29N 34°54' E 139°42'714.2
2018-Jan-26 22:00N 34°48' E 139°45'713.6
2018-Jan-26 21:30N 34°42' E 139°49'1114.2
2018-Jan-26 20:45N 34°33' E 139°55'414.7
2018-Jan-26 20:30N 34°29' E 139°57'16 1.7
2018-Jan-26 10:47N 34°29' E 139°37'612.4
2018-Jan-26 10:18N 34°31' E 139°30'512.3
2018-Jan-26 09:54N 34°33' E 139°25'513.3
2018-Jan-26 09:30N 34°35' E 139°19'713.4
2018-Jan-26 08:59N 34°34' E 139°11'613.0
2018-Jan-26 08:30N 34°31' E 139°04'612.9
2018-Jan-26 08:01N 34°28' E 138°57'714.2
2018-Jan-26 07:30N 34°28' E 138°48'714.2
2018-Jan-26 07:00N 34°27' E 138°40'714.1
2018-Jan-26 06:28N 34°27' E 138°31'613.1
2018-Jan-26 06:00N 34°26' E 138°23'612.6
2018-Jan-26 05:30N 34°26' E 138°16'612.8
2018-Jan-26 05:00N 34°26' E 138°08'611.8
2018-Jan-26 04:29N 34°26' E 138°00'611.3
2018-Jan-26 03:59N 34°26' E 137°54'510.5
2018-Jan-26 03:30N 34°26' E 137°48'510.2
2018-Jan-26 02:59N 34°26' E 137°41'610.8
2018-Jan-26 02:28N 34°25' E 137°34'510.4
2018-Jan-26 01:58N 34°25' E 137°28'610.4
2018-Jan-26 01:25N 34°24' E 137°21'410.2
2018-Jan-26 00:59N 34°25' E 137°16'4 8.5
2018-Jan-26 00:27N 34°26' E 137°21'510.6
2018-Jan-25 23:57N 34°26' E 137°28'810.3
2018-Jan-25 23:10N 34°26' E 137°37'310.3
2018-Jan-25 22:55N 34°26' E 137°41'510.8
2018-Jan-25 22:26N 34°26' E 137°47'510.7
2018-Jan-25 21:57N 34°26' E 137°53'511.5
2018-Jan-25 21:29N 34°27' E 137°60'711.2
2018-Jan-25 20:49N 34°27' E 138°09'310.2
2018-Jan-25 20:30N 34°27' E 138°13'5 9.8
2018-Jan-25 20:00N 34°27' E 138°18'6 9.7
2018-Jan-25 19:25N 34°27' E 138°25'4 9.5
2018-Jan-25 19:00N 34°27' E 138°30'5 9.1
2018-Jan-25 18:30N 34°27' E 138°36'5 9.2
2018-Jan-25 17:57N 34°27' E 138°42'4 9.3
2018-Jan-25 17:30N 34°27' E 138°47'611.3
2018-Jan-25 17:00N 34°27' E 138°54'5 9.8
2018-Jan-25 16:30N 34°28' E 138°59'1 1.9
2018-Jan-25 16:00N 34°28' E 139°00'713.1
2018-Jan-25 15:30N 34°27' E 138°52'713.3
2018-Jan-25 14:58N 34°27' E 138°44'714.6
2018-Jan-25 14:30N 34°27' E 138°35'813.8
2018-Jan-25 13:56N 34°27' E 138°26'612.7
2018-Jan-25 13:30N 34°26' E 138°19'712.6
2018-Jan-25 12:56N 34°26' E 138°11'511.5
2018-Jan-25 12:29N 34°26' E 138°04'711.1
2018-Jan-25 11:52N 34°26' E 137°56'410.3
2018-Jan-25 11:30N 34°26' E 137°51'510.3
2018-Jan-25 11:00N 34°25' E 137°45'610.4
2018-Jan-25 10:24N 34°26' E 137°38'  
Track history (hours):
 
Tides and Currents Weather Stations Pressure Air Temp Water Temp Dewpoint Dewpoint Depression Visibility Wind Speed Wind Dir Waves Ship Positions

Dalian Highway

Last reported at 2018-Feb-04 10:00 UTC. Time now 2018-Feb-19 21:25 UTC.
Position N 34°08' E 138°45'.
Warning: this ship's position is 15 days out of date.

Length 199 m; draft 8.9 m.

Type: Cargo ship. MMSI: 357694000.

Date/timePositionNaut miles runAvg speedWind from/ knotsBaromVisibWave heightAir tempDewpointWater temp
2018-Feb-04 10:00N 34°08' E 138°45'2116.2
2018-Feb-04 08:44N 34°12' E 138°21'416.8
2018-Feb-04 08:30N 34°13' E 138°16'1216.3
2018-Feb-04 07:46N 34°16' E 138°02'516.4
2018-Feb-04 07:27N 34°17' E 137°56'815.4
2018-Feb-04 06:57N 34°20' E 137°48'816.4
2018-Feb-04 06:27N 34°22' E 137°38'1516.6
2018-Feb-04 05:34N 34°26' E 137°21'717.0
2018-Feb-04 05:10N 34°28' E 137°13'516.7
2018-Feb-04 04:51N 34°30' E 137°07'511.5
2018-Feb-04 04:22N 34°33' E 137°01'513.0
2018-Feb-04 04:00N 34°36' E 136°57'917.6
2018-Feb-04 03:30N 34°42' E 136°49'917.9
2018-Feb-04 03:00N 34°51' E 136°46'815.0
2018-Feb-04 02:30N 34°58' E 136°48'510.6
2018-Feb-04 02:01N 35°02' E 136°51'0 0.6
2018-Feb-04 01:28N 35°03' E 136°51'0 0.0
2018-Feb-04 00:58N 35°03' E 136°51'0 0.0
2018-Feb-04 00:28N 35°03' E 136°51'0 0.0
2018-Feb-03 23:55N 35°03' E 136°51'0 0.0
2018-Feb-03 23:28N 35°03' E 136°51'0 0.0
2018-Feb-03 22:55N 35°03' E 136°51'0 0.0
2018-Feb-03 22:25N 35°03' E 136°51'0 0.6
2018-Feb-03 22:00N 35°02' E 136°51'2 4.3
2018-Feb-03 21:30N 35°01' E 136°50'611.9
2018-Feb-03 21:00N 34°55' E 136°47'714.0
2018-Feb-03 20:30N 34°48' E 136°47'714.4
2018-Feb-03 20:00N 34°42' E 136°51'1912.6
2018-Feb-03 18:29N 34°25' E 137°03'11012.3
2018-Feb-03 09:33N 33°45' E 134°59'118.2
2018-Feb-03 09:31N 33°46' E 134°59'918.0
2018-Feb-03 09:00N 33°54' E 134°55'918.4
2018-Feb-03 08:31N 34°03' E 134°56'816.3
2018-Feb-03 08:00N 34°11' E 134°57'2315.5
2018-Feb-03 06:30N 34°33' E 135°07'3 6.4
2018-Feb-03 06:01N 34°35' E 135°04'611.7
2018-Feb-03 05:30N 34°36' E 134°57'613.3
2018-Feb-03 05:00N 34°38' E 134°49'5 4.3
2018-Feb-03 03:57N 34°43' E 134°51'0 0.0
2018-Feb-03 03:30N 34°43' E 134°51'0 0.0
2018-Feb-03 01:54N 34°43' E 134°51'0 0.0
2018-Feb-03 01:30N 34°43' E 134°51'0 0.0
2018-Feb-03 01:00N 34°43' E 134°51'0 0.0
2018-Feb-03 00:27N 34°43' E 134°51'0 0.0
2018-Feb-02 23:57N 34°43' E 134°51'0 0.0
2018-Feb-02 23:30N 34°43' E 134°51'0 0.0
2018-Feb-02 22:51N 34°43' E 134°51'0 0.0
2018-Feb-02 22:30N 34°43' E 134°51'1 1.6
2018-Feb-02 22:00N 34°42' E 134°50'510.4
2018-Feb-02 21:30N 34°38' E 134°46'612.4
2018-Feb-02 21:00N 34°34' E 134°40'612.7
2018-Feb-02 20:31N 34°31' E 134°34'612.7
2018-Feb-02 20:00N 34°26' E 134°28'1212.0
2018-Feb-02 19:00N 34°24' E 134°14'714.0
2018-Feb-02 18:30N 34°26' E 134°06'2214.8
2018-Feb-02 17:02N 34°18' E 133°41'214.6
2018-Feb-02 16:55N 34°18' E 133°39'4413.9
2018-Feb-02 13:46N 34°05' E 132°49'416.0
2018-Feb-02 13:31N 34°01' E 132°46'816.2
2018-Feb-02 13:01N 33°55' E 132°39'916.8
2018-Feb-02 12:27N 33°49' E 132°31'817.3
2018-Feb-02 11:59N 33°45' E 132°23'2216.2
2018-Feb-02 10:35N 33°44' E 131°56'115.8
2018-Feb-02 10:30N 33°44' E 131°54'815.7
2018-Feb-02 10:01N 33°48' E 131°46'816.1
2018-Feb-02 09:31N 33°54' E 131°39'714.8
2018-Feb-02 09:00N 33°59' E 131°33'2 3.4
2018-Feb-02 08:29N 34°00' E 131°33'0 0.0
2018-Feb-02 07:53N 34°00' E 131°33'0 0.0
2018-Feb-02 07:29N 34°00' E 131°33'0 0.0
2018-Feb-02 06:59N 34°00' E 131°33'0 0.0
2018-Feb-02 06:29N 34°00' E 131°33'0 0.0
2018-Feb-02 05:59N 34°00' E 131°33'0 0.0
2018-Feb-02 05:29N 34°00' E 131°33'0 0.0
2018-Feb-02 04:59N 34°00' E 131°33'0 0.0
2018-Feb-02 04:29N 34°00' E 131°33'0 0.0
2018-Feb-02 03:59N 34°00' E 131°33'0 0.1
2018-Feb-02 03:29N 34°00' E 131°33'0 0.0
2018-Feb-02 02:59N 34°00' E 131°33'0 0.1
2018-Feb-02 02:29N 34°00' E 131°33'0 0.0
2018-Feb-02 01:59N 34°00' E 131°33'0 0.0
2018-Feb-02 01:29N 34°00' E 131°33'0 0.0
2018-Feb-02 00:59N 34°00' E 131°33'0 0.0
2018-Feb-02 00:23N 34°00' E 131°33'0 0.1
2018-Feb-01 23:59N 34°00' E 131°33'0 0.1
2018-Feb-01 23:29N 34°00' E 131°33'0 0.0
2018-Feb-01 22:59N 34°00' E 131°33'0 0.1
2018-Feb-01 22:00N 34°00' E 131°33'2 4.9
2018-Feb-01 21:30N 33°58' E 131°32'2512.5
2018-Feb-01 19:30N 33°44' E 131°57'1114.2
2018-Feb-01 18:46N 33°43' E 132°10'415.3
2018-Feb-01 18:30N 33°44' E 132°14'1115.4
2018-Feb-01 17:48N 33°49' E 132°26'616.0
2018-Feb-01 17:26N 33°53' E 132°31'613.8
2018-Feb-01 17:00N 33°58' E 132°34'6 9.2
2018-Feb-01 16:22N 34°01' E 132°29'411.4
2018-Feb-01 16:00N 34°04' E 132°25'611.7
2018-Feb-01 15:29N 34°09' E 132°21'611.7
2018-Feb-01 15:00N 34°15' E 132°21'6 3.9
2018-Feb-01 13:29N 34°19' E 132°26'0 0.0
2018-Feb-01 12:59N 34°19' E 132°26'0 0.1
2018-Feb-01 12:29N 34°19' E 132°26'0 0.0
2018-Feb-01 11:59N 34°19' E 132°26'0 0.0
2018-Feb-01 10:59N 34°19' E 132°26'0 0.0
2018-Feb-01 10:29N 34°19' E 132°26'0 0.0
2018-Feb-01 09:59N 34°19' E 132°26'0 0.0
2018-Feb-01 09:29N 34°19' E 132°26'0 0.1
2018-Feb-01 09:00N 34°20' E 132°26'2 5.0
2018-Feb-01 08:31N 34°21' E 132°28'1 0.1
2018-Jan-31 22:31N 34°21' E 132°29'0 0.7
2018-Jan-31 22:30N 34°21' E 132°29'10 6.8
2018-Jan-31 21:00N 34°14' E 132°21'510.6
2018-Jan-31 20:30N 34°08' E 132°22'714.1
2018-Jan-31 20:00N 34°03' E 132°27'612.9
2018-Jan-31 19:30N 34°01' E 132°34'712.0
2018-Jan-31 18:55N 33°53' E 132°33'613.3
2018-Jan-31 18:28N 33°50' E 132°28'613.8
2018-Jan-31 18:00N 33°45' E 132°23'1414.9
2018-Jan-31 17:04N 33°34' E 132°12'214.9
2018-Jan-31 16:54N 33°32' E 132°10'614.5
2018-Jan-31 16:30N 33°28' E 132°06'713.7
2018-Jan-31 16:00N 33°23' E 132°00'611.7
2018-Jan-31 15:30N 33°17' E 132°01'510.5
2018-Jan-31 15:00N 33°12' E 131°60'5 9.0
2018-Jan-31 14:30N 33°10' E 132°05'7111.6
2018-Jan-31 08:21N 32°35' E 133°19'17713.9
2018-Jan-30 19:37N 33°33' E 136°38'417.4
2018-Jan-30 19:23N 33°35' E 136°42'7316.7
2018-Jan-30 15:00N 34°19' E 137°53'815.6
2018-Jan-30 14:29N 34°24' E 138°01'1414.5
2018-Jan-30 13:30N 34°32' E 138°15'712.9
2018-Jan-30 13:00N 34°38' E 138°16'2 5.1
2018-Jan-30 12:31N 34°37' E 138°13'0 0.0
2018-Jan-30 02:59N 34°37' E 138°13'2 4.0
2018-Jan-30 02:30N 34°39' E 138°14'3 4.9
2018-Jan-30 01:59N 34°38' E 138°17'3 6.4
2018-Jan-30 01:30N 34°41' E 138°17'3 6.1
2018-Jan-30 01:00N 34°43' E 138°20'2 3.5
2018-Jan-30 00:29N 34°43' E 138°22'3 5.6
2018-Jan-30 00:00N 34°40' E 138°22'2 4.5
2018-Jan-29 23:30N 34°40' E 138°25'3 6.2
2018-Jan-29 23:00N 34°41' E 138°21'4 7.1
2018-Jan-29 22:30N 34°40' E 138°17'3 5.2
2018-Jan-29 22:00N 34°38' E 138°18'4 8.6
2018-Jan-29 21:30N 34°39' E 138°23'4 8.6
2018-Jan-29 21:00N 34°39' E 138°28'5 9.2
2018-Jan-29 20:30N 34°43' E 138°32'2 5.0
2018-Jan-29 20:00N 34°43' E 138°35'5 9.1
2018-Jan-29 19:28N 34°38' E 138°34'4 7.6
2018-Jan-29 18:56N 34°34' E 138°35'3 6.8
2018-Jan-29 18:29N 34°34' E 138°39'3 6.9
2018-Jan-29 17:59N 34°33' E 138°43'4 7.3
2018-Jan-29 17:30N 34°32' E 138°47'3 6.9
2018-Jan-29 17:00N 34°32' E 138°51'3 6.9
2018-Jan-29 16:30N 34°32' E 138°55'3 6.3
2018-Jan-29 15:59N 34°32' E 138°59'3 6.3
2018-Jan-29 15:29N 34°33' E 139°03'3 6.7
2018-Jan-29 14:59N 34°34' E 139°07'4 7.3
2018-Jan-29 14:29N 34°35' E 139°11'3 7.1
2018-Jan-29 14:00N 34°36' E 139°15'4 6.4
2018-Jan-29 13:27N 34°37' E 139°19'3 5.9
2018-Jan-29 12:59N 34°38' E 139°22'3 6.3
2018-Jan-29 12:28N 34°39' E 139°26'6 6.7
2018-Jan-29 11:33N 34°43' E 139°31'0 9.5
2018-Jan-29 11:30N 34°43' E 139°32'510.0
2018-Jan-29 11:00N 34°48' E 139°34'5 9.8
2018-Jan-29 10:30N 34°52' E 139°36'5 9.9
2018-Jan-29 10:00N 34°57' E 139°39'612.6
2018-Jan-29 09:30N 35°03' E 139°42'816.1
2018-Jan-29 09:00N 35°10' E 139°46'510.7
2018-Jan-29 08:30N 35°15' E 139°46'612.3
2018-Jan-29 08:00N 35°21' E 139°43'612.5
2018-Jan-29 07:30N 35°27' E 139°41'0 0.6
2018-Jan-29 06:59N 35°27' E 139°41'0 0.0
2018-Jan-29 06:29N 35°27' E 139°41'0 0.0
2018-Jan-29 05:59N 35°27' E 139°41'0 0.0
2018-Jan-29 05:29N 35°27' E 139°41'0 0.0
2018-Jan-29 04:59N 35°27' E 139°41'0 0.0
2018-Jan-29 04:29N 35°27' E 139°41'0 0.0
2018-Jan-29 03:59N 35°27' E 139°41'0 0.0
2018-Jan-29 03:29N 35°27' E 139°41'0 0.0
2018-Jan-29 02:59N 35°27' E 139°41'0 0.0
2018-Jan-29 02:29N 35°27' E 139°41'0 0.0
2018-Jan-29 01:59N 35°27' E 139°41'0 0.0
2018-Jan-29 01:27N 35°27' E 139°41'0 0.0
2018-Jan-29 00:52N 35°27' E 139°41'0 0.0
2018-Jan-29 00:26N 35°27' E 139°41'0 0.0
2018-Jan-28 23:29N 35°27' E 139°41'0 0.0
2018-Jan-28 22:51N 35°27' E 139°41'0 0.0
2018-Jan-28 22:30N 35°27' E 139°41'0 0.4
2018-Jan-28 22:00N 35°27' E 139°41'2 3.5
2018-Jan-28 21:30N 35°26' E 139°43'1 1.2
2018-Jan-28 20:59N 35°25' E 139°43'0 0.0
2018-Jan-28 20:29N 35°25' E 139°43'0 0.0
2018-Jan-28 19:59N 35°25' E 139°43'0 0.0
2018-Jan-28 19:29N 35°25' E 139°43'0 0.0
2018-Jan-28 18:59N 35°25' E 139°43'0 0.0
2018-Jan-28 18:29N 35°25' E 139°43'0 0.0
2018-Jan-28 17:59N 35°25' E 139°43'0 0.0
2018-Jan-28 17:29N 35°25' E 139°43'0 0.0
2018-Jan-28 16:59N 35°25' E 139°43'0 0.0
2018-Jan-28 16:29N 35°25' E 139°43'0 0.0
2018-Jan-28 15:59N 35°25' E 139°43'0 0.0
2018-Jan-28 15:29N 35°25' E 139°43'0 0.0
2018-Jan-28 14:59N 35°25' E 139°43'0 0.0
2018-Jan-28 14:29N 35°25' E 139°43'0 0.0
2018-Jan-28 13:59N 35°25' E 139°43'0 0.0
2018-Jan-28 13:29N 35°25' E 139°43'0 0.0
2018-Jan-28 12:59N 35°25' E 139°43'0 0.0
2018-Jan-28 12:29N 35°25' E 139°43'0 0.0
2018-Jan-28 11:59N 35°25' E 139°43'0 0.0
2018-Jan-28 11:29N 35°25' E 139°43'0 0.0
2018-Jan-28 10:59N 35°25' E 139°43'0 0.1
2018-Jan-28 10:29N 35°25' E 139°43'0 0.2
2018-Jan-28 09:59N 35°25' E 139°43'0 0.0
2018-Jan-28 09:29N 35°25' E 139°43'0 0.1
2018-Jan-28 08:59N 35°25' E 139°43'0 0.1
2018-Jan-28 08:26N 35°25' E 139°43'0 0.1
2018-Jan-28 07:59N 35°25' E 139°43'0 0.1
2018-Jan-28 07:29N 35°25' E 139°43'0 0.1
2018-Jan-28 06:59N 35°25' E 139°43'0 0.0
2018-Jan-28 06:29N 35°25' E 139°43'0 0.0
2018-Jan-28 05:59N 35°25' E 139°43'0 0.0
2018-Jan-28 05:29N 35°25' E 139°43'0 0.0
2018-Jan-28 04:59N 35°25' E 139°43'0 0.0
2018-Jan-28 04:29N 35°25' E 139°43'0 0.0
2018-Jan-28 03:59N 35°25' E 139°43'0 0.0
2018-Jan-28 03:29N 35°25' E 139°43'0 0.0
2018-Jan-28 02:59N 35°25' E 139°43'0 0.0
2018-Jan-28 02:29N 35°25' E 139°43'0 0.0
2018-Jan-28 01:59N 35°25' E 139°43'0 0.0
2018-Jan-28 01:26N 35°25' E 139°43'0 0.0
2018-Jan-28 00:59N 35°25' E 139°43'0 0.0
2018-Jan-28 00:29N 35°25' E 139°43'0 0.0
2018-Jan-27 23:59N 35°25' E 139°43'0 0.0
2018-Jan-27 23:26N 35°25' E 139°43'0 0.0
2018-Jan-27 22:59N 35°25' E 139°43'0 0.0
2018-Jan-27 22:29N 35°25' E 139°43'0 0.0
2018-Jan-27 21:59N 35°25' E 139°43'0 0.0
2018-Jan-27 21:29N 35°25' E 139°43'0 0.0
2018-Jan-27 20:59N 35°25' E 139°43'0 0.0
2018-Jan-27 20:29N 35°25' E 139°43'0 0.0
2018-Jan-27 19:59N 35°25' E 139°43'0 0.0
2018-Jan-27 19:29N 35°25' E 139°43'0 0.0
2018-Jan-27 18:59N 35°25' E 139°43'0 0.1
2018-Jan-27 18:29N 35°25' E 139°43'0 0.0
2018-Jan-27 17:59N 35°25' E 139°43'0 0.1
2018-Jan-27 17:29N 35°25' E 139°43'0 0.0
2018-Jan-27 16:59N 35°25' E 139°43'0 0.0
2018-Jan-27 16:29N 35°25' E 139°43'0 0.1
2018-Jan-27 15:59N 35°25' E 139°43'0 0.0
2018-Jan-27 15:29N 35°25' E 139°43'0 0.0
2018-Jan-27 14:59N 35°25' E 139°43'0 0.1
2018-Jan-27 14:29N 35°25' E 139°43'0 0.0
2018-Jan-27 13:59N 35°25' E 139°43'0 0.0
2018-Jan-27 13:29N 35°25' E 139°43'0 0.1
2018-Jan-27 12:59N 35°25' E 139°43'0 0.1
2018-Jan-27 12:29N 35°25' E 139°43'0 0.0
2018-Jan-27 11:59N 35°25' E 139°43'0 0.1
2018-Jan-27 11:29N 35°25' E 139°43'0 0.0
2018-Jan-27 10:59N 35°25' E 139°43'0 0.1
2018-Jan-27 10:29N 35°25' E 139°43'0 0.2
2018-Jan-27 09:59N 35°25' E 139°43'0 0.1
2018-Jan-27 09:29N 35°25' E 139°43'0 0.1
2018-Jan-27 08:59N 35°25' E 139°43'0 0.0
2018-Jan-27 08:29N 35°25' E 139°43'0 0.1
2018-Jan-27 07:59N 35°25' E 139°43'0 0.1
2018-Jan-27 07:29N 35°25' E 139°43'0 0.1
2018-Jan-27 06:59N 35°25' E 139°43'0 0.1
2018-Jan-27 06:29N 35°25' E 139°43'0 0.0
2018-Jan-27 05:59N 35°25' E 139°43'0 0.1
2018-Jan-27 05:29N 35°25' E 139°43'0 0.1
2018-Jan-27 04:59N 35°25' E 139°43'0 0.1
2018-Jan-27 04:29N 35°25' E 139°43'0 0.0
2018-Jan-27 03:59N 35°25' E 139°43'0 0.1
2018-Jan-27 03:29N 35°25' E 139°43'0 0.0
2018-Jan-27 02:59N 35°25' E 139°43'0 0.1
2018-Jan-27 02:29N 35°25' E 139°43'0 0.0
2018-Jan-27 01:59N 35°25' E 139°43'0 0.1
2018-Jan-27 01:30N 35°25' E 139°43'3 5.0
2018-Jan-27 01:00N 35°23' E 139°43'612.3
2018-Jan-27 00:30N 35°17' E 139°45'612.5
2018-Jan-27 00:00N 35°11' E 139°47'5 9.9
2018-Jan-26 23:30N 35°06' E 139°45'611.6
2018-Jan-26 23:00N 35°01' E 139°42'713.5
2018-Jan-26 22:29N 34°54' E 139°42'714.2
2018-Jan-26 22:00N 34°48' E 139°45'713.6
2018-Jan-26 21:30N 34°42' E 139°49'1114.2
2018-Jan-26 20:45N 34°33' E 139°55'414.7
2018-Jan-26 20:30N 34°29' E 139°57'16 1.7
2018-Jan-26 10:47N 34°29' E 139°37'612.4
2018-Jan-26 10:18N 34°31' E 139°30'512.3
2018-Jan-26 09:54N 34°33' E 139°25'513.3
2018-Jan-26 09:30N 34°35' E 139°19'713.4
2018-Jan-26 08:59N 34°34' E 139°11'613.0
2018-Jan-26 08:30N 34°31' E 139°04'612.9
2018-Jan-26 08:01N 34°28' E 138°57'714.2
2018-Jan-26 07:30N 34°28' E 138°48'714.2
2018-Jan-26 07:00N 34°27' E 138°40'714.1
2018-Jan-26 06:28N 34°27' E 138°31'613.1
2018-Jan-26 06:00N 34°26' E 138°23'612.6
2018-Jan-26 05:30N 34°26' E 138°16'612.8
2018-Jan-26 05:00N 34°26' E 138°08'611.8
2018-Jan-26 04:29N 34°26' E 138°00'611.3
2018-Jan-26 03:59N 34°26' E 137°54'510.5
2018-Jan-26 03:30N 34°26' E 137°48'510.2
2018-Jan-26 02:59N 34°26' E 137°41'610.8
2018-Jan-26 02:28N 34°25' E 137°34'510.4
2018-Jan-26 01:58N 34°25' E 137°28'610.4
2018-Jan-26 01:25N 34°24' E 137°21'410.2
2018-Jan-26 00:59N 34°25' E 137°16'4 8.5
2018-Jan-26 00:27N 34°26' E 137°21'510.6
2018-Jan-25 23:57N 34°26' E 137°28'810.3
2018-Jan-25 23:10N 34°26' E 137°37'310.3
2018-Jan-25 22:55N 34°26' E 137°41'510.8
2018-Jan-25 22:26N 34°26' E 137°47'510.7
2018-Jan-25 21:57N 34°26' E 137°53'511.5
2018-Jan-25 21:29N 34°27' E 137°60'711.2
2018-Jan-25 20:49N 34°27' E 138°09'310.2
2018-Jan-25 20:30N 34°27' E 138°13'5 9.8
2018-Jan-25 20:00N 34°27' E 138°18'6 9.7
2018-Jan-25 19:25N 34°27' E 138°25'4 9.5
2018-Jan-25 19:00N 34°27' E 138°30'5 9.1
2018-Jan-25 18:30N 34°27' E 138°36'5 9.2
2018-Jan-25 17:57N 34°27' E 138°42'4 9.3
2018-Jan-25 17:30N 34°27' E 138°47'611.3
2018-Jan-25 17:00N 34°27' E 138°54'5 9.8
2018-Jan-25 16:30N 34°28' E 138°59'1 1.9
2018-Jan-25 16:00N 34°28' E 139°00'713.1
2018-Jan-25 15:30N 34°27' E 138°52'713.3
2018-Jan-25 14:58N 34°27' E 138°44'714.6
2018-Jan-25 14:30N 34°27' E 138°35'813.8
2018-Jan-25 13:56N 34°27' E 138°26'612.7
2018-Jan-25 13:30N 34°26' E 138°19'712.6
2018-Jan-25 12:56N 34°26' E 138°11'511.5
2018-Jan-25 12:29N 34°26' E 138°04'711.1
2018-Jan-25 11:52N 34°26' E 137°56'410.3
2018-Jan-25 11:30N 34°26' E 137°51'510.3
2018-Jan-25 11:00N 34°25' E 137°45'610.4
2018-Jan-25 10:24N 34°26' E 137°38'  

Dump ship's entire track history